Time;durP1;ratioP1;P1;durP2;ratioP2;P2;SDS_P1;SDS_P2;PMS_P1;PMS_P2;Temp;Humidity;BMP_temperature;BMP_pressure;BME280_temperature;BME280_humidity;BME280_pressure;Samples;Min_cycle;Max_cycle;Signal;HPM_P1;HPM_P2
2023/02/02 00:00:23;;;;;;;;;;;;;;;3.55;80.66;99683.98;108798;1254;125015;-80
2023/02/02 00:03:09;;;;;;;;;;;;;;;3.58;80.90;99680.78;108995;1254;60462;-80
2023/02/02 00:05:36;;;;;;;;;;;;;;;3.59;80.82;99678.75;108964;1257;125166;-80
2023/02/02 00:08:02;;;;;;;;;;;;;;;3.59;80.80;99682.89;109130;1255;59243;-80
2023/02/02 00:10:28;;;;;;;;;;;;;;;3.59;80.80;99674.23;108859;1254;59498;-82
2023/02/02 00:12:56;;;;;;;;;;;;;;;3.61;80.83;99675.52;108895;1254;124058;-82
2023/02/02 00:15:23;;;;;;;;;;;;;;;3.63;80.98;99672.11;109058;1257;60247;-82
2023/02/02 00:17:49;;;;;;;;;;;;;;;3.64;81.12;99675.79;108803;1254;123898;-82
2023/02/02 00:20:17;;;;;;;;;;;;;;;3.67;81.16;99669.85;108906;1254;59221;-81
2023/02/02 00:22:43;;;;;;;;;;;;;;;3.69;81.14;99664.69;108969;1254;72437;-81
2023/02/02 00:25:10;;;;;;;;;;;;;;;3.71;81.16;99661.11;108886;1254;123882;-82
2023/02/02 00:27:36;;;;;;;;;;;;;;;3.72;81.32;99659.59;109062;1255;59188;-81
2023/02/02 00:30:02;;;;;;;;;;;;;;;3.71;81.32;99655.20;108974;1254;123992;-82
2023/02/02 00:32:29;;;;;;;;;;;;;;;3.70;81.11;99655.88;108935;1254;59352;-82
2023/02/02 00:34:56;;;;;;;;;;;;;;;3.68;81.21;99660.48;109013;1254;59168;-82
2023/02/02 00:37:22;;;;;;;;;;;;;;;3.65;81.26;99661.45;108827;1257;124157;-82
2023/02/02 00:39:49;;;;;;;;;;;;;;;3.65;81.37;99659.34;108861;1259;59465;-80
2023/02/02 00:42:15;;;;;;;;;;;;;;;3.63;81.40;99656.33;108873;1257;124511;-81
2023/02/02 00:47:26;;;;;;;;;;;;;;;3.62;81.58;99656.67;108774;1254;124547;-82
2023/02/02 00:49:52;;;;;;;;;;;;;;;3.63;81.61;99661.70;108978;1254;59432;-81
2023/02/02 00:52:18;;;;;;;;;;;;;;;3.64;81.62;99655.85;108937;1254;59590;-81
2023/02/02 00:54:45;;;;;;;;;;;;;;;3.66;81.64;99654.72;108854;1254;125415;-80
2023/02/02 00:57:12;;;;;;;;;;;;;;;3.68;81.61;99653.38;108022;1257;61237;-81
2023/02/02 00:59:38;;;;;;;;;;;;;;;3.68;81.65;99648.20;107705;1257;124623;-81
2023/02/02 01:02:04;;;;;;;;;;;;;;;3.69;81.78;99648.39;108833;1254;59085;-82
2023/02/02 01:04:30;;;;;;;;;;;;;;;3.68;81.61;99643.48;108880;1254;59077;-82
2023/02/02 01:06:57;;;;;;;;;;;;;;;3.66;81.51;99646.02;108759;1257;124722;-82
2023/02/02 01:09:23;;;;;;;;;;;;;;;3.66;81.61;99646.17;108885;1254;59164;-83
2023/02/02 01:11:49;;;;;;;;;;;;;;;3.64;81.45;99646.45;107642;1254;124431;-82
2023/02/02 01:14:16;;;;;;;;;;;;;;;3.63;81.55;99643.67;107372;1256;59843;-82
2023/02/02 01:17:00;;;;;;;;;;;;;;;3.64;81.57;99644.20;108201;1254;59561;-82
2023/02/02 01:19:27;;;;;;;;;;;;;;;3.65;81.69;99643.05;108110;1255;124211;-82
2023/02/02 01:21:53;;;;;;;;;;;;;;;3.67;81.70;99639.64;107868;1254;67503;-82
2023/02/02 01:24:20;;;;;;;;;;;;;;;3.68;81.72;99635.34;107684;1256;125026;-80
2023/02/02 01:26:46;;;;;;;;;;;;;;;3.71;81.85;99634.05;107811;1260;61273;-82
2023/02/02 01:29:14;;;;;;;;;;;;;;;3.75;81.87;99629.51;107531;1257;124398;-82
2023/02/02 01:31:41;;;;;;;;;;;;;;;3.76;81.78;99627.79;108260;1254;74614;-82
2023/02/02 01:34:07;;;;;;;;;;;;;;;3.72;81.66;99630.27;107545;1256;65778;-81
2023/02/02 01:36:33;;;;;;;;;;;;;;;3.65;81.37;99630.37;107492;1254;124459;-82
2023/02/02 01:39:00;;;;;;;;;;;;;;;3.55;81.35;99624.29;107442;1254;61279;-82
2023/02/02 01:41:26;;;;;;;;;;;;;;;3.44;81.16;99624.42;107323;1254;124985;-82
2023/02/02 01:43:54;;;;;;;;;;;;;;;3.35;81.32;99624.11;107969;1255;59417;-81
2023/02/02 01:46:27;;;;;;;;;;;;;;;3.25;81.42;99629.67;108992;1254;67456;-81
2023/02/02 01:49:20;;;;;;;;;;;;;;;3.15;81.41;99625.65;108825;1254;124348;-82
2023/02/02 01:51:47;;;;;;;;;;;;;;;3.03;81.45;99627.48;108868;1256;59402;-83
2023/02/02 01:54:15;;;;;;;;;;;;;;;2.96;81.45;99623.56;108244;1260;124933;-81
2023/02/02 01:56:43;;;;;;;;;;;;;;;2.88;81.42;99624.66;107692;1254;74634;-83
2023/02/02 01:59:10;;;;;;;;;;;;;;;2.82;81.65;99625.65;107554;1259;124441;-83
2023/02/02 02:01:36;;;;;;;;;;;;;;;2.77;81.77;99628.56;107776;1254;71142;-83
2023/02/02 02:04:02;;;;;;;;;;;;;;;2.71;81.91;99626.64;107948;1254;61198;-81
2023/02/02 02:06:29;;;;;;;;;;;;;;;2.66;81.95;99629.73;107540;1254;124727;-82
2023/02/02 02:08:59;;;;;;;;;;;;;;;2.62;82.12;99630.06;107594;1254;61298;-85
2023/02/02 02:11:26;;;;;;;;;;;;;;;2.57;82.12;99629.04;107569;1260;124524;-82
2023/02/02 02:16:44;;;;;;;;;;;;;;;2.48;82.36;99631.30;107705;1254;61394;-84
2023/02/02 02:19:28;;;;;;;;;;;;;;;2.46;82.48;99631.17;107558;1259;124368;-83
2023/02/02 02:27:39;;;;;;;;;;;;;;;2.32;82.53;99634.47;107511;1254;71428;-83
2023/02/02 02:30:08;;;;;;;;;;;;;;;2.29;82.61;99637.47;107554;1260;124886;-82
2023/02/02 02:32:53;;;;;;;;;;;;;;;2.26;82.58;99644.60;107473;1257;60186;-82
2023/02/02 02:35:48;;;;;;;;;;;;;;;2.23;82.83;99644.97;107668;1254;124397;-83
2023/02/02 02:38:29;;;;;;;;;;;;;;;2.21;82.88;99646.10;107869;1256;67222;-81
2023/02/02 02:40:56;;;;;;;;;;;;;;;2.18;82.83;99644.09;108849;1256;71173;-82
2023/02/02 02:43:25;;;;;;;;;;;;;;;2.15;82.81;99643.65;108757;1254;124606;-80
2023/02/02 02:45:51;;;;;;;;;;;;;;;2.13;82.93;99643.23;108905;1254;60488;-81
2023/02/02 02:48:17;;;;;;;;;;;;;;;2.11;82.85;99645.90;108747;1254;124240;-81
2023/02/02 02:50:47;;;;;;;;;;;;;;;2.07;82.77;99640.71;107915;1255;61230;-81
2023/02/02 02:53:15;;;;;;;;;;;;;;;2.05;82.85;99644.10;107519;1254;126005;-81
2023/02/02 02:55:50;;;;;;;;;;;;;;;2.03;82.97;99650.59;107815;1254;61687;-81
2023/02/02 02:58:20;;;;;;;;;;;;;;;2.00;82.93;99651.15;107786;1255;60149;-80
2023/02/02 03:00:47;;;;;;;;;;;;;;;1.96;82.90;99648.41;108679;1254;124949;-80
2023/02/02 03:03:13;;;;;;;;;;;;;;;1.94;83.15;99649.35;109025;1254;67407;-80
2023/02/02 03:05:53;;;;;;;;;;;;;;;1.92;83.10;99652.41;108977;1256;125208;-80
2023/02/02 03:08:23;;;;;;;;;;;;;;;1.92;83.19;99659.30;108868;1253;59443;-79
2023/02/02 03:10:49;;;;;;;;;;;;;;;1.91;83.30;99658.40;108824;1257;60106;-80
2023/02/02 03:13:16;;;;;;;;;;;;;;;1.93;83.44;99661.92;108687;1257;125969;-80
2023/02/02 03:15:45;;;;;;;;;;;;;;;1.95;83.41;99659.05;108852;1256;59494;-82
2023/02/02 03:18:13;;;;;;;;;;;;;;;1.97;83.48;99662.44;108794;1254;124860;-81
2023/02/02 03:20:39;;;;;;;;;;;;;;;2.04;83.68;99663.59;108830;1254;58997;-81
2023/02/02 03:23:05;;;;;;;;;;;;;;;2.14;83.88;99664.01;109028;1256;59446;-82
2023/02/02 03:25:32;;;;;;;;;;;;;;;2.22;84.00;99659.14;108131;1254;124752;-80
2023/02/02 03:27:58;;;;;;;;;;;;;;;2.26;83.97;99660.52;107627;1256;61281;-81
2023/02/02 03:30:24;;;;;;;;;;;;;;;2.25;83.67;99661.19;108799;1254;124363;-82
2023/02/02 03:32:51;;;;;;;;;;;;;;;2.23;83.57;99658.86;109042;1259;59305;-81
2023/02/02 03:35:19;;;;;;;;;;;;;;;2.22;83.55;99654.64;108224;1254;124627;-81
2023/02/02 03:37:46;;;;;;;;;;;;;;;2.19;83.49;99656.61;107630;1253;74726;-82
2023/02/02 03:40:12;;;;;;;;;;;;;;;2.19;83.48;99657.29;107672;1257;66039;-81
2023/02/02 03:42:39;;;;;;;;;;;;;;;2.19;83.52;99659.71;107910;1255;124368;-81
2023/02/02 03:45:05;;;;;;;;;;;;;;;2.20;83.49;99658.73;107839;1254;59974;-81
2023/02/02 03:47:31;;;;;;;;;;;;;;;2.21;83.65;99660.51;107714;1254;124621;-82
2023/02/02 03:49:58;;;;;;;;;;;;;;;2.21;83.54;99661.88;107517;1260;61132;-82
2023/02/02 03:52:25;;;;;;;;;;;;;;;2.23;83.71;99660.75;107498;1260;59791;-82
2023/02/02 03:54:52;;;;;;;;;;;;;;;2.23;83.47;99664.38;107797;1254;124343;-81
2023/02/02 03:57:18;;;;;;;;;;;;;;;2.23;83.62;99668.70;107583;1257;59648;-82
2023/02/02 03:59:44;;;;;;;;;;;;;;;2.24;83.68;99672.76;107870;1254;124452;-80
2023/02/02 04:02:12;;;;;;;;;;;;;;;2.27;83.66;99669.23;107808;1256;59360;-80
2023/02/02 04:04:38;;;;;;;;;;;;;;;2.30;83.72;99671.92;107765;1254;65750;-80
2023/02/02 04:07:05;;;;;;;;;;;;;;;2.32;83.84;99673.42;107518;1255;124790;-81
2023/02/02 04:09:32;;;;;;;;;;;;;;;2.36;83.72;99673.91;107551;1256;59528;-81
2023/02/02 04:11:58;;;;;;;;;;;;;;;2.40;83.86;99678.20;107999;1254;124938;-81
2023/02/02 04:14:24;;;;;;;;;;;;;;;2.42;83.81;99677.44;108085;1254;59512;-80
2023/02/02 04:16:51;;;;;;;;;;;;;;;2.45;83.87;99683.80;108039;1254;59670;-80
2023/02/02 04:19:17;;;;;;;;;;;;;;;2.48;83.71;99688.59;107772;1254;124498;-80
2023/02/02 04:21:43;;;;;;;;;;;;;;;2.52;83.84;99694.11;108330;1254;60035;-80
2023/02/02 04:24:10;;;;;;;;;;;;;;;2.56;83.84;99697.58;107760;1256;124841;-80
2023/02/02 04:26:36;;;;;;;;;;;;;;;2.62;84.03;99697.46;109051;1254;58974;-80
2023/02/02 04:29:02;;;;;;;;;;;;;;;2.67;83.73;99696.44;109029;1256;59428;-80
2023/02/02 04:31:29;;;;;;;;;;;;;;;2.70;83.77;99698.96;108804;1254;124651;-80
2023/02/02 04:33:55;;;;;;;;;;;;;;;2.72;83.73;99698.56;109083;1253;59535;-80
2023/02/02 04:36:22;;;;;;;;;;;;;;;2.76;83.76;99700.60;108766;1254;124700;-80
2023/02/02 04:38:49;;;;;;;;;;;;;;;2.80;83.79;99703.20;109006;1255;59242;-80
2023/02/02 04:41:15;;;;;;;;;;;;;;;2.85;83.85;99704.63;108884;1253;125022;-80
2023/02/02 04:43:41;;;;;;;;;;;;;;;2.92;83.85;99708.66;108910;1254;59503;-80
2023/02/02 04:46:08;;;;;;;;;;;;;;;2.98;83.93;99714.12;108984;1256;59307;-80
2023/02/02 04:48:34;;;;;;;;;;;;;;;3.03;83.66;99716.37;108771;1254;125106;-81
2023/02/02 04:51:01;;;;;;;;;;;;;;;3.06;83.54;99715.48;108839;1256;59788;-81
2023/02/02 04:53:27;;;;;;;;;;;;;;;3.09;83.63;99719.74;108831;1256;124542;-80
2023/02/02 04:55:54;;;;;;;;;;;;;;;3.13;83.55;99726.47;109059;1257;59169;-80
2023/02/02 04:58:20;;;;;;;;;;;;;;;3.17;83.54;99726.13;108864;1254;59524;-81
2023/02/02 05:00:46;;;;;;;;;;;;;;;3.22;83.46;99729.40;108589;1259;124775;-83
2023/02/02 05:03:13;;;;;;;;;;;;;;;3.24;83.34;99734.15;107727;1254;61193;-80
2023/02/02 05:05:39;;;;;;;;;;;;;;;3.24;83.35;99732.95;108329;1254;124998;-81
2023/02/02 05:08:07;;;;;;;;;;;;;;;3.24;83.22;99739.02;108881;1254;59491;-81
2023/02/02 05:10:33;;;;;;;;;;;;;;;3.25;83.26;99739.23;108282;1254;61471;-80
2023/02/02 05:12:59;;;;;;;;;;;;;;;3.26;83.20;99738.77;107817;1256;125334;-80
2023/02/02 05:15:26;;;;;;;;;;;;;;;3.27;83.13;99735.67;107896;1257;59925;-81
2023/02/02 05:17:52;;;;;;;;;;;;;;;3.28;83.16;99739.38;108792;1256;125188;-81
2023/02/02 05:20:18;;;;;;;;;;;;;;;3.29;83.08;99741.13;108935;1256;59463;-81
2023/02/02 05:22:47;;;;;;;;;;;;;;;3.30;83.07;99746.56;109084;1257;59933;-81
2023/02/02 05:25:13;;;;;;;;;;;;;;;3.32;83.05;99746.60;109010;1255;124113;-81
2023/02/02 05:27:41;;;;;;;;;;;;;;;3.33;83.01;99749.94;108828;1254;73910;-80
2023/02/02 05:30:08;;;;;;;;;;;;;;;3.34;83.04;99752.26;108878;1255;124126;-80
2023/02/02 05:32:35;;;;;;;;;;;;;;;3.34;82.95;99753.45;108817;1255;73183;-79
2023/02/02 05:35:01;;;;;;;;;;;;;;;3.34;83.03;99759.86;109016;1257;60270;-82
2023/02/02 05:37:27;;;;;;;;;;;;;;;3.34;83.01;99763.13;108667;1257;123703;-82
2023/02/02 05:39:53;;;;;;;;;;;;;;;3.34;82.93;99764.86;108863;1262;59338;-81
2023/02/02 05:42:19;;;;;;;;;;;;;;;3.32;82.82;99767.94;108877;1256;124016;-81
2023/02/02 05:44:46;;;;;;;;;;;;;;;3.31;82.94;99771.38;108211;1259;61242;-80
2023/02/02 05:47:12;;;;;;;;;;;;;;;3.29;82.75;99776.84;108529;1254;123606;-80
2023/02/02 05:49:38;;;;;;;;;;;;;;;3.26;82.81;99781.59;108894;1256;59533;-81
2023/02/02 05:52:04;;;;;;;;;;;;;;;3.25;82.83;99784.31;109049;1254;59421;-82
2023/02/02 05:54:31;;;;;;;;;;;;;;;3.24;82.78;99792.05;108827;1254;124352;-80
2023/02/02 05:57:00;;;;;;;;;;;;;;;3.23;82.89;99801.38;108869;1254;59471;-79
2023/02/02 05:59:28;;;;;;;;;;;;;;;3.23;82.92;99805.39;108723;1254;123753;-80
2023/02/02 06:01:54;;;;;;;;;;;;;;;3.24;82.96;99811.83;109086;1254;59596;-80
2023/02/02 06:04:20;;;;;;;;;;;;;;;3.24;82.89;99813.05;108977;1255;59442;-80
2023/02/02 06:06:46;;;;;;;;;;;;;;;3.23;82.94;99814.73;108986;1254;123565;-81
2023/02/02 06:09:13;;;;;;;;;;;;;;;3.20;82.86;99821.56;108957;1256;59389;-80
2023/02/02 06:11:39;;;;;;;;;;;;;;;3.19;82.97;99830.72;108875;1259;125018;-80
2023/02/02 06:14:05;;;;;;;;;;;;;;;3.19;82.93;99835.93;109057;1254;59461;-81
2023/02/02 06:16:31;;;;;;;;;;;;;;;3.21;83.08;99837.73;108272;1254;61369;-80
2023/02/02 06:18:58;;;;;;;;;;;;;;;3.23;83.00;99836.94;107274;1256;125143;-80
2023/02/02 06:21:24;;;;;;;;;;;;;;;3.27;83.01;99843.67;107533;1256;61401;-81
2023/02/02 06:23:50;;;;;;;;;;;;;;;3.28;83.17;99843.23;107490;1254;125325;-82
2023/02/02 06:26:16;;;;;;;;;;;;;;;3.30;83.27;99850.94;107613;1254;61180;-82
2023/02/02 06:28:46;;;;;;;;;;;;;;;3.33;83.29;99853.28;107548;1257;61000;-82
2023/02/02 06:31:12;;;;;;;;;;;;;;;3.36;83.38;99862.42;108142;1255;125042;-81
2023/02/02 06:33:39;;;;;;;;;;;;;;;3.40;83.46;99870.20;107903;1257;59718;-82
2023/02/02 06:36:05;;;;;;;;;;;;;;;3.42;83.45;99881.20;108101;1256;124424;-82
2023/02/02 06:38:32;;;;;;;;;;;;;;;3.42;83.29;99888.83;108028;1256;59558;-82
2023/02/02 06:40:58;;;;;;;;;;;;;;;3.41;83.40;99898.71;107692;1257;61239;-81
2023/02/02 06:43:25;;;;;;;;;;;;;;;3.40;83.43;99904.91;107585;1256;124817;-82
2023/02/02 06:45:51;;;;;;;;;;;;;;;3.39;83.53;99917.16;107553;1254;59748;-82
2023/02/02 06:48:17;;;;;;;;;;;;;;;3.27;84.62;99931.44;107644;1254;124815;-81
2023/02/02 06:50:46;;;;;;;;;;;;;;;3.05;84.69;99931.73;107771;1257;59965;-82
2023/02/02 06:53:12;;;;;;;;;;;;;;;2.90;84.45;99936.81;107966;1256;124951;-82
2023/02/02 06:55:39;;;;;;;;;;;;;;;2.78;84.47;99945.33;108995;1254;60044;-82
2023/02/02 06:58:08;;;;;;;;;;;;;;;2.65;84.42;99954.46;108509;1256;72792;-81
2023/02/02 07:00:37;;;;;;;;;;;;;;;2.51;84.29;99961.45;107944;1254;125145;-82
2023/02/02 07:03:03;;;;;;;;;;;;;;;2.43;84.51;99970.63;107883;1260;61291;-81
2023/02/02 07:05:29;;;;;;;;;;;;;;;2.40;84.69;99978.80;107738;1257;124601;-82
2023/02/02 07:07:56;;;;;;;;;;;;;;;2.38;84.73;99982.88;107828;1257;61365;-81
2023/02/02 07:10:22;;;;;;;;;;;;;;;2.36;84.89;99990.91;107563;1256;59669;-82
2023/02/02 07:12:48;;;;;;;;;;;;;;;2.32;84.87;99998.55;107551;1258;124319;-81
2023/02/02 07:15:14;;;;;;;;;;;;;;;2.31;84.98;100006.79;107939;1254;59805;-81
2023/02/02 07:17:41;;;;;;;;;;;;;;;2.30;85.01;100010.05;107740;1256;125138;-82
2023/02/02 07:20:07;;;;;;;;;;;;;;;2.31;85.07;100016.84;107758;1257;59689;-81
2023/02/02 07:22:33;;;;;;;;;;;;;;;2.30;85.17;100023.20;108035;1259;59344;-82
2023/02/02 07:24:59;;;;;;;;;;;;;;;2.31;85.29;100027.74;107578;1257;124530;-82
2023/02/02 07:27:26;;;;;;;;;;;;;;;2.35;85.34;100032.24;107285;1259;60076;-82
2023/02/02 07:29:52;;;;;;;;;;;;;;;2.39;85.36;100040.22;107445;1254;124630;-82
2023/02/02 07:32:18;;;;;;;;;;;;;;;2.42;85.46;100056.63;107928;1259;61325;-82
2023/02/02 07:34:45;;;;;;;;;;;;;;;2.41;85.37;100066.80;107686;1254;59881;-81
2023/02/02 07:37:11;;;;;;;;;;;;;;;2.39;85.41;100073.11;108046;1254;124505;-81
2023/02/02 07:39:42;;;;;;;;;;;;;;;2.37;85.54;100072.86;108316;1257;60644;-82
2023/02/02 07:42:11;;;;;;;;;;;;;;;2.41;85.70;100079.45;107623;1254;125247;-82
2023/02/02 07:44:39;;;;;;;;;;;;;;;2.43;85.76;100082.66;108996;1254;65859;-82
2023/02/02 07:47:05;;;;;;;;;;;;;;;2.43;85.76;100086.15;109088;1254;71301;-82
2023/02/02 07:49:32;;;;;;;;;;;;;;;2.50;85.96;100089.73;108571;1256;124944;-81
2023/02/02 07:51:59;;;;;;;;;;;;;;;2.57;85.99;100094.54;108020;1254;60165;-83
2023/02/02 07:54:25;;;;;;;;;;;;;;;2.62;85.83;100102.43;108920;1255;124696;-83
2023/02/02 07:56:51;;;;;;;;;;;;;;;2.69;86.02;100109.33;107471;1254;61388;-83
2023/02/02 07:59:18;;;;;;;;;;;;;;;2.77;85.83;100116.10;107526;1257;126131;-82
2023/02/02 08:01:45;;;;;;;;;;;;;;;2.85;85.79;100124.81;107291;1257;61322;-83
2023/02/02 08:04:11;;;;;;;;;;;;;;;2.89;85.49;100126.71;107754;1257;61408;-83
2023/02/02 08:06:38;;;;;;;;;;;;;;;2.91;85.38;100133.70;107319;1256;124597;-83
2023/02/02 08:09:09;;;;;;;;;;;;;;;2.94;85.46;100140.29;107526;1257;62611;-83
2023/02/02 08:11:35;;;;;;;;;;;;;;;2.99;85.47;100146.23;107655;1257;124929;-82
2023/02/02 08:14:02;;;;;;;;;;;;;;;3.05;85.39;100150.30;107845;1256;59554;-84
2023/02/02 08:16:29;;;;;;;;;;;;;;;3.15;85.56;100154.07;108455;1254;59156;-83
2023/02/02 08:18:55;;;;;;;;;;;;;;;3.26;85.70;100162.37;108668;1256;124742;-82
2023/02/02 08:21:21;;;;;;;;;;;;;;;3.38;85.48;100166.33;107732;1255;62167;-81
2023/02/02 08:23:48;;;;;;;;;;;;;;;3.43;85.22;100168.67;107357;1256;125331;-82
2023/02/02 08:26:15;;;;;;;;;;;;;;;3.49;85.13;100181.23;107368;1254;62041;-82
2023/02/02 08:28:42;;;;;;;;;;;;;;;3.52;84.82;100186.05;107511;1260;61126;-82
2023/02/02 08:31:09;;;;;;;;;;;;;;;3.62;84.98;100193.59;107408;1254;124962;-82
2023/02/02 08:33:36;;;;;;;;;;;;;;;3.75;84.87;100208.02;107743;1257;65595;-82
2023/02/02 08:36:02;;;;;;;;;;;;;;;3.71;84.37;100201.62;107662;1257;124856;-82
2023/02/02 08:38:29;;;;;;;;;;;;;;;3.56;84.12;100204.08;107613;1256;59706;-80
2023/02/02 08:40:56;;;;;;;;;;;;;;;3.45;84.04;100220.59;107600;1254;60322;-81
2023/02/02 08:43:22;;;;;;;;;;;;;;;3.56;84.59;100226.82;107961;1255;124556;-81
2023/02/02 08:45:49;;;;;;;;;;;;;;;3.76;84.66;100236.88;107818;1254;61179;-82
2023/02/02 08:48:15;;;;;;;;;;;;;;;3.84;84.38;100234.45;108065;1256;124876;-81
2023/02/02 08:50:42;;;;;;;;;;;;;;;3.84;84.36;100240.38;108537;1256;59541;-82
2023/02/02 08:53:08;;;;;;;;;;;;;;;3.91;84.48;100247.09;107381;1256;125237;-81
2023/02/02 08:55:34;;;;;;;;;;;;;;;3.96;84.23;100260.52;107340;1257;61263;-82
2023/02/02 08:58:01;;;;;;;;;;;;;;;4.09;84.33;100270.42;107644;1256;61308;-82
2023/02/02 09:00:27;;;;;;;;;;;;;;;4.20;84.15;100276.65;108696;1254;127239;-82
2023/02/02 09:02:53;;;;;;;;;;;;;;;4.22;83.77;100285.25;107415;1258;61182;-82
2023/02/02 09:05:21;;;;;;;;;;;;;;;4.13;83.72;100283.80;107682;1255;125259;-82
2023/02/02 09:07:48;;;;;;;;;;;;;;;4.05;83.52;100289.91;107340;1257;61356;-82
2023/02/02 09:10:14;;;;;;;;;;;;;;;4.01;83.62;100289.88;107908;1255;65949;-83
2023/02/02 09:12:40;;;;;;;;;;;;;;;4.01;83.53;100294.40;107289;1257;124923;-83
2023/02/02 09:15:07;;;;;;;;;;;;;;;4.02;83.36;100305.57;107407;1257;59382;-83
2023/02/02 09:17:34;;;;;;;;;;;;;;;3.99;83.10;100313.59;107194;1256;125598;-83
2023/02/02 09:20:00;;;;;;;;;;;;;;;4.02;83.35;100316.67;107727;1257;75018;-83
2023/02/02 09:22:27;;;;;;;;;;;;;;;4.08;83.46;100324.24;107511;1255;61288;-83
2023/02/02 09:24:54;;;;;;;;;;;;;;;4.10;83.22;100334.39;107306;1257;125118;-83
2023/02/02 09:27:21;;;;;;;;;;;;;;;4.08;83.08;100335.33;107769;1256;61120;-83
2023/02/02 09:29:48;;;;;;;;;;;;;;;4.15;83.24;100336.35;107343;1257;124855;-83
2023/02/02 09:32:15;;;;;;;;;;;;;;;4.26;82.99;100338.38;107633;1257;72886;-83
2023/02/02 09:34:42;;;;;;;;;;;;;;;4.36;82.82;100343.32;108159;1254;59635;-83
2023/02/02 09:37:08;;;;;;;;;;;;;;;4.40;82.24;100346.45;108286;1261;124787;-83
2023/02/02 09:39:36;;;;;;;;;;;;;;;4.37;81.96;100354.64;107552;1258;61827;-84
2023/02/02 09:42:13;;;;;;;;;;;;;;;4.31;81.83;100360.48;107504;1254;124651;-83
2023/02/02 09:44:52;;;;;;;;;;;;;;;4.23;81.77;100367.29;107704;1255;72909;-83
2023/02/02 09:47:21;;;;;;;;;;;;;;;4.20;81.54;100368.17;107538;1256;228629;-82
2023/02/02 09:49:55;;;;;;;;;;;;;;;4.24;81.59;100379.27;107620;1256;74030;-83
2023/02/02 09:52:26;;;;;;;;;;;;;;;4.32;81.72;100376.67;107847;1257;59739;-83
2023/02/02 09:54:55;;;;;;;;;;;;;;;4.49;81.84;100379.35;107969;1254;125149;-83
2023/02/02 09:57:23;;;;;;;;;;;;;;;4.70;81.88;100382.33;107375;1257;73190;-83
2023/02/02 09:59:53;;;;;;;;;;;;;;;4.87;81.69;100392.25;107849;1254;125220;-81
2023/02/02 10:02:25;;;;;;;;;;;;;;;4.88;81.39;100396.45;108938;1256;72796;-81
2023/02/02 10:04:55;;;;;;;;;;;;;;;4.79;80.89;100405.98;108975;1255;59234;-81
2023/02/02 10:07:36;;;;;;;;;;;;;;;4.66;80.72;100407.88;108290;1256;125431;-81
2023/02/02 10:10:14;;;;;;;;;;;;;;;4.63;80.85;100415.22;107304;1257;77652;-81
2023/02/02 10:12:46;;;;;;;;;;;;;;;4.61;80.56;100430.23;108081;1259;125075;-81
2023/02/02 10:15:21;;;;;;;;;;;;;;;4.26;79.86;100431.14;107526;1257;72709;-82
2023/02/02 10:17:59;;;;;;;;;;;;;;;3.83;80.20;100440.77;107379;1257;124612;-82
2023/02/02 10:20:29;;;;;;;;;;;;;;;3.48;81.52;100441.94;107373;1255;59601;-83
2023/02/02 10:22:56;;;;;;;;;;;;;;;3.32;82.42;100443.38;107746;1254;73289;-83
2023/02/02 10:25:24;;;;;;;;;;;;;;;3.29;83.15;100443.63;107981;1256;124486;-82
2023/02/02 10:27:55;;;;;;;;;;;;;;;3.31;83.37;100446.80;107513;1257;71309;-82
2023/02/02 10:30:33;;;;;;;;;;;;;;;3.48;83.62;100456.64;107094;1256;124465;-82
2023/02/02 10:33:06;;;;;;;;;;;;;;;3.77;84.06;100471.23;107376;1256;59750;-81
2023/02/02 10:35:35;;;;;;;;;;;;;;;3.73;83.68;100486.15;107934;1254;125398;-82
2023/02/02 10:38:09;;;;;;;;;;;;;;;3.08;82.27;100485.89;108890;1257;67431;-81
2023/02/02 10:40:47;;;;;;;;;;;;;;;2.57;82.94;100476.00;107620;1257;72408;-82
2023/02/02 10:43:48;;;;;;;;;;;;;;;2.40;83.97;100478.05;107198;1256;124884;-82
2023/02/02 10:46:32;;;;;;;;;;;;;;;2.31;84.51;100481.02;106892;1262;61333;-82
2023/02/02 10:49:04;;;;;;;;;;;;;;;2.21;85.03;100485.30;108039;1254;124862;-84
2023/02/02 10:51:31;;;;;;;;;;;;;;;2.12;85.40;100491.81;109008;1255;68510;-81
2023/02/02 10:53:58;;;;;;;;;;;;;;;2.10;85.88;100495.28;108956;1254;125204;-81
2023/02/02 10:56:27;;;;;;;;;;;;;;;2.13;86.40;100502.77;108875;1261;59739;-82
2023/02/02 10:58:59;;;;;;;;;;;;;;;2.25;86.74;100510.48;109054;1256;59373;-81
2023/02/02 11:01:26;;;;;;;;;;;;;;;2.51;87.18;100516.70;108818;1255;124308;-82
2023/02/02 11:06:48;;;;;;;;;;;;;;;2.75;87.15;100516.63;108916;1256;59635;-83
2023/02/02 11:06:51;;;;;;;;;;;;;;;2.95;86.98;100526.46;108802;1254;125123;-83
2023/02/02 11:09:22;;;;;;;;;;;;;;;2.84;85.87;100523.34;108939;1256;62305;-81
2023/02/02 11:11:53;;;;;;;;;;;;;;;2.74;85.88;100529.02;107453;1257;125147;-81
2023/02/02 11:14:42;;;;;;;;;;;;;;;2.76;86.03;100525.69;108859;1256;73157;-81
2023/02/02 11:17:15;;;;;;;;;;;;;;;2.78;86.05;100538.58;108905;1254;124990;-80
2023/02/02 11:19:42;;;;;;;;;;;;;;;2.75;85.84;100546.39;108267;1254;72384;-80
2023/02/02 11:22:09;;;;;;;;;;;;;;;2.73;85.94;100549.45;108793;1254;61743;-81
2023/02/02 11:24:39;;;;;;;;;;;;;;;2.72;85.79;100552.00;108844;1257;125001;-80
2023/02/02 11:27:05;;;;;;;;;;;;;;;2.83;85.95;100557.39;109054;1254;73688;-81
2023/02/02 11:29:38;;;;;;;;;;;;;;;2.92;85.76;100560.84;109003;1257;125022;-81
2023/02/02 11:32:18;;;;;;;;;;;;;;;3.01;85.66;100559.56;109060;1254;71590;-81
2023/02/02 11:34:44;;;;;;;;;;;;;;;3.13;85.45;100567.80;108915;1257;59403;-81
2023/02/02 11:37:14;;;;;;;;;;;;;;;3.24;85.22;100575.45;108838;1256;125195;-81
2023/02/02 11:39:41;;;;;;;;;;;;;;;3.32;84.81;100584.38;107706;1262;74658;-81
2023/02/02 11:42:17;;;;;;;;;;;;;;;3.43;84.75;100584.61;107375;1260;124685;-81
2023/02/02 11:44:48;;;;;;;;;;;;;;;3.54;84.96;100582.39;107434;1254;72710;-83
2023/02/02 11:47:19;;;;;;;;;;;;;;;3.71;84.82;100584.95;107333;1254;125339;-80
2023/02/02 11:49:46;;;;;;;;;;;;;;;3.79;84.38;100593.53;107408;1254;61160;-81
2023/02/02 11:52:16;;;;;;;;;;;;;;;3.84;84.02;100592.17;107646;1262;75025;-82
2023/02/02 11:54:44;;;;;;;;;;;;;;;3.93;84.09;100596.83;107546;1257;125227;-82
2023/02/02 11:57:14;;;;;;;;;;;;;;;4.04;83.08;100603.09;108801;1256;71900;-82
2023/02/02 11:59:41;;;;;;;;;;;;;;;4.19;82.82;100608.64;108862;1257;124621;-82
2023/02/02 12:02:20;;;;;;;;;;;;;;;4.22;82.47;100611.94;108864;1256;59919;-83
2023/02/02 12:04:47;;;;;;;;;;;;;;;4.16;82.05;100610.74;108874;1256;72365;-82
2023/02/02 12:07:30;;;;;;;;;;;;;;;4.09;82.04;100607.67;108742;1259;124788;-83
2023/02/02 12:10:00;;;;;;;;;;;;;;;4.15;82.22;100613.48;108955;1257;72860;-83
2023/02/02 12:12:30;;;;;;;;;;;;;;;4.30;82.38;100619.41;108825;1255;124405;-81
2023/02/02 12:15:02;;;;;;;;;;;;;;;4.41;82.18;100621.88;109022;1257;59503;-82
2023/02/02 12:17:29;;;;;;;;;;;;;;;4.54;82.01;100627.18;108622;1257;124579;-83
2023/02/02 12:20:01;;;;;;;;;;;;;;;4.61;81.81;100623.50;107931;1257;67746;-83
2023/02/02 12:22:40;;;;;;;;;;;;;;;4.76;82.18;100633.77;107405;1254;71506;-83
2023/02/02 12:25:22;;;;;;;;;;;;;;;4.98;81.74;100639.30;107023;1262;124920;-82
2023/02/02 12:27:48;;;;;;;;;;;;;;;4.99;81.13;100653.25;107294;1256;59848;-83
2023/02/02 12:30:33;;;;;;;;;;;;;;;4.58;80.56;100661.42;107725;1263;125004;-83
2023/02/02 12:33:00;;;;;;;;;;;;;;;4.04;80.61;100676.35;107298;1259;65122;-83
2023/02/02 12:35:31;;;;;;;;;;;;;;;3.64;80.75;100686.64;107101;1259;124557;-82
2023/02/02 12:38:11;;;;;;;;;;;;;;;3.36;81.17;100686.56;107651;1257;61262;-83
2023/02/02 12:40:56;;;;;;;;;;;;;;;3.19;81.77;100685.33;107802;1254;61301;-83
2023/02/02 12:43:27;;;;;;;;;;;;;;;2.99;82.27;100698.98;107340;1260;125502;-84
2023/02/02 12:46:13;;;;;;;;;;;;;;;2.68;82.90;100709.09;107418;1256;67337;-83
2023/02/02 12:48:43;;;;;;;;;;;;;;;2.26;83.35;100709.81;107367;1254;124434;-83
2023/02/02 12:51:15;;;;;;;;;;;;;;;2.02;84.34;100712.05;107216;1258;61282;-83
2023/02/02 12:53:41;;;;;;;;;;;;;;;1.97;85.07;100714.02;107699;1256;125350;-83
2023/02/02 12:56:11;;;;;;;;;;;;;;;2.01;85.89;100719.79;107479;1254;73398;-81